1948 01W:KAREN (1948011N07147)


On this page: IBTrACS data - Map and Plots - Positions - Intensities - Original source data

Summary

Start Jan 11
End Jan 19
Basin WP
LMI 130 kt
Sources jtwc_wp
td9636
td9635
ds824_wp
In WMO? No
Previous storm 1948 02P (SP)
Previous in basin 1947 27W (WP)
Concurrent storms 1948 01W (WP)
1948 04P (SP)
1948 03P (SP)
1948 01B (NI)
1948 MISSING (SP)
1948 05S (SI)
Next in basin Missing
Next storm 1948 04P (SP)

top of page IBTrACS Data: File Access

No storm imagery available

top of page Plots:

Map of storm track will not appear if FTP is down
Time series of cyclone Maximum Sustained Wind will not appear if FTP is down
Time series of cyclone Minimum Central Pressure will not appear if FTP is down

top of page Track Data:Position

jtwc_wp td9636 td9635 ds824_wp
Date Lat Lon Lat Lon Lat Lon Lat Lon
1948-01-11 06:00:00 7.0 146.8 7.0 146.8 7.0 146.8
1948-01-11 12:00:00 7.6 146.7 7.6 146.7 7.6 146.7 7.6 146.7
1948-01-11 18:00:00 8.4 146.5 8.4 146.6 8.4 146.5 8.4 146.5
1948-01-12 00:00:00 9.2 146.1 9.2 146.1 9.2 146.1 9.2 146.1
1948-01-12 06:00:00 10.0 145.0 9.9 145.2 10.0 145.0 10.0 145.0
1948-01-12 12:00:00 10.4 144.0 10.4 144.0 10.4 144.0 10.4 144.0
1948-01-12 18:00:00 10.5 142.9 10.6 143.0 10.5 142.9 10.5 142.9
1948-01-13 00:00:00 10.5 142.0 10.5 142.0 10.5 142.0 10.5 142.0
1948-01-13 06:00:00 10.6 140.8 10.5 140.9 10.6 140.8 10.6 140.8
1948-01-13 12:00:00 10.3 139.8 10.3 139.8 10.3 139.8 10.3 139.8
1948-01-13 18:00:00 10.0 138.9 9.9 138.9 10.0 138.9 10.0 138.9
1948-01-14 00:00:00 9.7 138.2 9.7 138.2 9.7 138.2 9.7 138.2
1948-01-14 06:00:00 9.9 137.2 9.9 137.4 9.9 137.2 9.9 137.2
1948-01-14 12:00:00 10.3 136.7 10.3 136.7 10.3 136.7 10.3 136.7
1948-01-14 18:00:00 10.6 136.2 10.6 136.1 10.6 136.2 10.6 136.2
1948-01-15 00:00:00 10.9 135.6 10.9 135.6 10.9 135.6 10.9 135.6
1948-01-15 06:00:00 11.3 135.0 11.2 135.1 11.3 135.0 11.3 135.0
1948-01-15 12:00:00 11.6 134.6 11.6 134.6 11.6 134.6 11.6 134.6
1948-01-15 18:00:00 11.9 134.2 11.9 134.2 11.9 134.2 11.9 134.2
1948-01-16 00:00:00 12.3 134.0 12.3 134.0 12.3 134.0 12.3 134.0
1948-01-16 06:00:00 12.8 134.1 12.7 134.1 12.8 134.1 12.8 134.1
1948-01-16 12:00:00 13.2 134.4 13.2 134.4 13.2 134.4 13.2 134.4
1948-01-16 18:00:00 13.8 135.0 13.7 135.0 13.8 135.0 13.8 135.0
1948-01-17 00:00:00 14.3 135.8 14.3 135.8 14.3 135.8 14.3 135.8
1948-01-17 06:00:00 14.8 136.6 14.8 136.6 14.8 136.6 14.8 136.6
jtwc_wp td9636 td9635 ds824_wp
1948-01-17 12:00:00 15.3 137.4 15.3 137.4 15.3 137.4 15.3 137.4
1948-01-17 18:00:00 15.6 138.2 15.7 138.1 15.6 138.2 15.6 138.2
1948-01-18 00:00:00 16.1 139.2 16.1 139.2 16.1 139.2 16.1 139.2
1948-01-18 06:00:00 16.9 141.1 16.8 140.9 16.9 141.1 16.9 141.1
1948-01-18 12:00:00 17.7 142.9 17.7 142.9 17.7 142.9 17.7 142.9
1948-01-18 18:00:00 18.7 144.8 18.6 144.8 18.7 144.8 18.7 144.8
1948-01-19 00:00:00 19.5 146.5 19.5 146.5 19.5 146.5 19.5 146.5
1948-01-19 06:00:00 19.6 148.0 19.6 148.0
1948-01-19 12:00:00 19.8 149.5 19.8 149.5
1948-01-19 18:00:00 20.0 151.5 20.0 151.5

top of pageTrack Data:Intensity

jtwc_wp td9636 td9635 ds824_wp
Date Wind Pres Wind Pres Wind Pres Wind Pres
1948-01-11 06:00:00 35. 35. 996. 35.
1948-01-11 12:00:00 35. 35. 35. 994. 35.
1948-01-11 18:00:00 35. 35. 35. 992. 35.
1948-01-12 00:00:00 50. 50. 50. 990. 50.
1948-01-12 06:00:00 55. 50. 55. 988. 55.
1948-01-12 12:00:00 55. 55. 55. 986. 55.
1948-01-12 18:00:00 60. 55. 60. 984. 60.
1948-01-13 00:00:00 65. 65. 65. 981. 65.
1948-01-13 06:00:00 70. 65. 70. 978. 70.
1948-01-13 12:00:00 70. 70. 70. 976. 70.
1948-01-13 18:00:00 70. 70. 70. 975. 70.
1948-01-14 00:00:00 75. 75. 75. 975. 75.
1948-01-14 06:00:00 75. 75. 75. 975. 75.
1948-01-14 12:00:00 80. 80. 80. 974. 80.
1948-01-14 18:00:00 80. 80. 80. 972. 80.
1948-01-15 00:00:00 80. 80. 80. 970. 80.
1948-01-15 06:00:00 80. 80. 80. 966. 80.
1948-01-15 12:00:00 95. 95. 95. 961. 95.
1948-01-15 18:00:00 110. 95. 110. 949. 110.
1948-01-16 00:00:00 130. 130. 130. 937. 130.
1948-01-16 06:00:00 130. 130. 130. 936. 130.
1948-01-16 12:00:00 130. 130. 130. 940. 130.
1948-01-16 18:00:00 120. 130. 120. 946. 120.
1948-01-17 00:00:00 100. 100. 100. 955. 100.
1948-01-17 06:00:00 75. 100. 75. 965. 75.
jtwc_wp td9636 td9635 ds824_wp
1948-01-17 12:00:00 75. 75. 75. 973. 75.
1948-01-17 18:00:00 75. 75. 75. 979. 75.
1948-01-18 00:00:00 65. 65. 65. 983. 65.
1948-01-18 06:00:00 65. 65. 65. 987. 65.
1948-01-18 12:00:00 60. 60. 60. 990. 60.
1948-01-18 18:00:00 55. 60. 55. 994. 55.
1948-01-19 00:00:00 45. 45. 45. 997. 45.
1948-01-19 06:00:00 40. 40.
1948-01-19 12:00:00 35. 35.
1948-01-19 18:00:00 30. 30.

top of page Links to source data

Source Source file Format
jtwc_wp bwp011948.txt ATCF
td9636 cons_worldwide_trop_cyclone_18710101-19891231-003:Line=14645 TD 9636
td9635 typhoons-analogs_19450101-19761231.corrected:Line=0 TD 9635
ds824_wp w_npac.dat:69:01W HURDAT